Archival Weather

Centro Met. Antartico Pdte. E

Centro Met. Antartico Pdte. E, Antarctica (SCRM)

Report from: Thursday, September 21, 2023 9:00 PM UTC
Current time: Friday, February 23, 2024 8:18 PM UTC

Current weather – Weather history – Daily summaries
Weather forecast

Temperature-6.0°C (21.2°F)
Wind chill-14.7°C (5.6°F)
Dew point-10.0°C (14.0°F)
Winds 18 kts (9.3 m/s, 20.7 mph) West-Southwest (240°)
Visibility6.2 mi. (10 km)
Clouds Ceiling: Broken clouds 2,500 ft. (762 m)
Altimeter29.15 in.Hg (987 mB)
Relative humidity73 %
Density altitude-1,643 ft. (-501 m)
Remarks No significant changes expected in the next two hours
Flight conditions Marginal Visual Meteorological Conditions
Raw dataSCRM 212100Z 24018KT 9999 BKN025 M06/M10 Q0987 NOSIG
An error has occurred. This application may no longer respond until reloaded. Reload 🗙